METAR Data
IDs: Format: Raw Decoded Include TAF

Data at: 0238 UTC 25 Jan 2020

PAIN 250213Z AUTO 36005KT 3SM -SN OVC027 M21/M25 A2965 RMK AO2 P0000 FZRANO
PAIN 250156Z AUTO VRB03KT 2 1/2SM -SN OVC027 M21/M25 A2965 RMK AO2 SLP105 P0000 T12111250 FZRANO
PAIN 250114Z AUTO VRB05KT 2SM -SN BKN025 BKN043 OVC050 M21/M25 A2964 RMK AO2 P0000 FZRANO
PAIN 250056Z AUTO 01007KT 2SM -SN FEW025 BKN046 OVC055 M21/M25 A2964 RMK AO2 SLP102 P0000 T12111250 FZRANO
PAIN 242356Z AUTO 36011G17KT 5SM -SN BKN036 OVC044 M21/M26 A2962 RMK AO2 SLP096 P0000 60000 T12111256 11211 21222 55003 FZRANO
PAIN 242320Z AUTO 01008G15KT 3SM -SN SCT028 OVC038 M21/M25 A2962 RMK AO2 P0000 FZRANO
PAIN 242308Z AUTO VRB05KT 3SM -SN BKN028 OVC036 M21/M25 A2962 RMK AO2 P0000 FZRANO
PAIN 242256Z AUTO VRB04KT 2 1/2SM -SN SCT025 BKN034 OVC043 M21/M25 A2962 RMK AO2 VIS 1 3/4V4 SLP095 P0000 T12111250 FZRANO
PAIN 242156Z AUTO 34007KT 290V010 2 1/2SM -SN OVC042 M22/M25 A2963 RMK AO2 SLP097 P0000 T12171250 FZRANO
PAIN 242056Z AUTO 35009G15KT 5SM -SN BKN035 OVC044 M22/M25 A2963 RMK AO2 SLP099 P0000 60000 T12171250 57002 FZRANO
PAIN 242017Z AUTO 35006KT 4SM -SN OVC036 M22/M25 A2964 RMK AO2 P0000 FZRANO
PAIN 241956Z AUTO 01007KT 2 1/2SM -SN BKN036 OVC048 M22/M25 A2964 RMK AO2 SLP102 P0000 T12221250 FZRANO
PAIN 241934Z AUTO 36008KT 2 1/2SM -SN OVC047 M22/M25 A2964 RMK AO2 P0000 FZRANO
PAIN 241856Z AUTO 35008KT 4SM -SN BKN038 OVC048 M22/M26 A2963 RMK AO2 SLP100 P0000 T12221256 FZRANO
PAIN 241756Z AUTO 36009KT 4SM -SN OVC034 M22/M25 A2964 RMK AO2 SLP102 P0000 60000 T12221250 11211 21222 53003 FZRANO
PAIN 241735Z AUTO 01007KT 3SM -SN OVC032 M22/M25 A2963 RMK AO2 P0000 FZRANO
PAIN 241656Z AUTO 36011G16KT 2 1/2SM -SN OVC032 M22/M25 A2963 RMK AO2 SLP098 P0000 T12221250 FZRANO
PAIN 241626Z AUTO 01009G18KT 2 1/2SM -SN OVC032 M22/M25 A2963 RMK AO2 P0000 FZRANO
PAIN 241556Z AUTO 36007KT 3SM -SN OVC032 M22/M25 A2963 RMK AO2 SLP098 P0000 T12171250 FZRANO
PAIN 241550Z AUTO 36010KT 3SM -SN OVC032 M22/M24 A2963 RMK AO2 P0000 FZRANO
PAIN 241535Z AUTO 35010KT 2 1/2SM -SN OVC030 M22/M24 A2963 RMK AO2 P0000 FZRANO
PAIN 241523Z AUTO 36008KT 3SM -SN BKN030 OVC047 M22/M24 A2963 RMK AO2 P0000 FZRANO
PAIN 241513Z AUTO 36007KT 2 1/2SM -SN BKN028 OVC047 M22/M24 A2964 RMK AO2 P0000 FZRANO
PAIN 241456Z AUTO 36008G14KT 3SM -SN OVC050 M22/M24 A2964 RMK AO2 SLP100 P0000 60000 T12171244 58002 FZRANO
PAIN 241356Z AUTO 36009G14KT 6SM -SN SCT027 BKN034 OVC042 M22/M24 A2964 RMK AO2 SLP101 P0000 T12171244 FZRANO
PAIN 241332Z AUTO 36009KT 4SM -SN OVC034 M22/M24 A2964 RMK AO2 P0000 FZRANO
PAIN 241314Z AUTO 36011G16KT 2 1/2SM -SN FEW022 OVC040 M22/M24 A2964 RMK AO2 P0000 FZRANO
PAIN 241256Z AUTO 01011G17KT 4SM -SN BKN022 BKN036 OVC044 M22/M24 A2965 RMK AO2 SLP103 P0000 T12171244 FZRANO
PAIN 241240Z AUTO 01011G17KT 2 1/2SM -SN SCT020 BKN029 OVC037 M22/M24 A2965 RMK AO2 P0000 FZRANO
PAIN 241156Z AUTO 36012G17KT 4SM -SN OVC027 M21/M24 A2964 RMK AO2 SLP101 P0000 60000 70004 T12111239 11206 21211 56003 FZRANO
PAIN 241138Z AUTO 36010G17KT 4SM -SN BKN029 OVC043 M21/M24 A2964 RMK AO2 P0000 FZRANO
PAIN 241112Z AUTO 36009G16KT 4SM -SN FEW024 BKN032 OVC043 M21/M24 A2964 RMK AO2 P0000 FZRANO
PAIN 241056Z AUTO 01008KT 4SM -SN BKN022 OVC028 M21/M24 A2964 RMK AO2 SLP101 P0000 T12111239 FZRANO
PAIN 241044Z AUTO 36008KT 3SM -SN OVC020 M21/M24 A2965 RMK AO2 P0000 FZRANO
PAIN 241026Z AUTO 01009G17KT 2 1/2SM -SN BKN020 OVC034 M21/M24 A2965 RMK AO2 P0000 FZRANO
PAIN 241009Z AUTO VRB06G14KT 2SM -SN FEW020 OVC034 M21/M23 A2965 RMK AO2 P0000 FZRANO
PAIN 240956Z AUTO 02009KT 3SM -SN OVC032 M21/M23 A2965 RMK AO2 SLP102 P0000 T12061233 FZRANO
PAIN 240939Z AUTO VRB05KT 3SM -SN OVC030 M21/M23 A2965 RMK AO2 P0000 FZRANO
PAIN 240910Z AUTO 01007KT 3SM -SN BKN026 OVC035 M21/M23 A2965 RMK AO2 P0000 FZRANO
PAIN 240856Z AUTO 02011G16KT 3SM -SN SCT026 OVC036 M21/M23 A2965 RMK AO2 SLP104 P0000 60000 T12061233 411721206 53002 FZRANO
PAIN 240756Z AUTO 03007G14KT 350V060 3SM -SN SCT030 OVC042 M21/M23 A2965 RMK AO2 SLP103 P0000 T12061233 FZRANO
PAIN 240752Z AUTO 02007G14KT 3SM -SN SCT030 OVC042 M21/M23 A2965 RMK AO2 P0000 FZRANO
PAIN 240730Z AUTO 01007G15KT 2 1/2SM -SN OVC032 M21/M23 A2965 RMK AO2 P0000 FZRANO
PAIN 240656Z AUTO 02010G16KT 4SM -SN OVC030 M21/M23 A2964 RMK AO2 SLP100 P0000 T12061233 FZRANO
PAIN 240556Z AUTO 36010KT 3SM -SN OVC036 M21/M23 A2965 RMK AO2 SLP103 P0000 60000 T12061233 11189 21206 56001 FZRANO
PAIN 240548Z AUTO 01006KT 3SM -SN OVC036 M21/M23 A2966 RMK AO2 P0000 FZRANO
PAIN 240532Z AUTO 01007KT 2 1/2SM -SN FEW023 OVC034 M21/M23 A2966 RMK AO2 P0000 FZRANO
PAIN 240456Z AUTO 01011G17KT 2SM -SN OVC021 M21/M23 A2965 RMK AO2 SLP102 P0000 T12061233 FZRANO
PAIN 240356Z AUTO 01011G16KT 2SM -SN OVC018 M21/M23 A2966 RMK AO2 SLP104 P0000 T12061233 FZRANO
PAIN 240309Z AUTO 36009G18KT 1 1/4SM -SN BR BKN022 OVC029 M21/M23 A2966 RMK AO2 P0000 FZRANO
PAIN 240256Z AUTO 01007G15KT 340V060 2SM -SN BR BKN027 OVC037 M21/M23 A2965 RMK AO2 SLP103 P0000 60000 T12061228 54000 FZRANO
PAIN 240241Z AUTO 36011G18KT 2 1/2SM -SN OVC037 M20/M23 A2965 RMK AO2 VIS 1V3 P0000 FZRANO
PAIN 240156Z AUTO 36007G15KT 4SM -SN OVC041 M20/M23 A2965 RMK AO2 SLP102 P0000 T12001228 FZRANO
PAIN 240144Z AUTO 01010G16KT 3SM -SN SCT033 OVC042 M20/M23 A2965 RMK AO2 P0000 FZRANO
PAIN 240056Z AUTO 01008G14KT 2 1/2SM -SN SCT028 OVC037 M19/M22 A2965 RMK AO2 SLP102 P0000 T11941222 FZRANO
PAIN 240023Z AUTO 01008G14KT 2SM -SN OVC026 M19/M22 A2965 RMK AO2 P0000 FZRANO
PAIN 232356Z AUTO 04006KT 3SM -SN BKN029 OVC034 M19/M22 A2965 RMK AO2 SLP101 P0000 60004 T11891217 11183 21189 57003 FZRANO
PAIN 232335Z AUTO 02008KT 2 1/2SM -SN BKN027 OVC034 M19/M22 A2965 RMK AO2 VIS 2V3 P0000 FZRANO
PAIN 232328Z AUTO 01006KT 3SM -SN OVC031 M19/M22 A2966 RMK AO2 P0000 FZRANO
PAIN 232323Z AUTO 36007KT 2 1/2SM -SN BKN029 BKN035 OVC043 M19/M22 A2966 RMK AO2 P0000 FZRANO
PAIN 232310Z AUTO 01006KT 2 1/2SM -SN SCT029 BKN035 OVC043 M19/M22 A2966 RMK AO2 VIS 2V3 P0000 FZRANO
PAIN 232256Z AUTO 01007KT 3SM -SN BR OVC043 M19/M21 A2966 RMK AO2 SLP103 P0000 T11891211 FZRANO
PAIN 232156Z AUTO 01008KT 9SM -SN FEW027 SCT037 OVC045 M19/M21 A2966 RMK AO2 SLP103 P0000 T11891211 FZRANO
PAIN 232056Z AUTO 36005KT 9SM -SN OVC044 M19/M21 A2966 RMK AO2 SLP104 P0000 60004 T11891211 50003 FZRANO
PAIN 231956Z AUTO 01006KT 9SM -SN SCT034 OVC045 M19/M21 A2967 RMK AO2 SLP105 P0004 T11891211 FZRANO
PAIN 231856Z AUTO 36008KT 7SM -SN BKN034 OVC048 M18/M21 A2966 RMK AO2 SLP100 P0000 T11831211 FZRANO
PAIN 231756Z AUTO 01006KT 7SM -SN SCT044 OVC060 M18/M21 A2965 RMK AO2 SLP097 P0000 60000 T11831211 11178 21189 53006 FZRANO
PAIN 231656Z AUTO 36008KT 9SM -SN BKN035 OVC080 M18/M21 A2964 RMK AO2 SLP096 P0000 T11831211 FZRANO
PAIN 231556Z AUTO 36007KT 9SM -SN FEW049 OVC075 M18/M21 A2963 RMK AO2 SLP094 P0000 T11831206 FZRANO
PAIN 231456Z AUTO 36008KT 7SM -SN BKN039 OVC070 M18/M21 A2963 RMK AO2 SLP094 P0000 60000 T11781206 50000 FZRANO